Time;durP1;ratioP1;P1;durP2;ratioP2;P2;SDS_P1;SDS_P2;PMS_P1;PMS_P2;Temp;Humidity;BMP_temperature;BMP_pressure;BME280_temperature;BME280_humidity;BME280_pressure;Samples;Min_cycle;Max_cycle;Signal;HPM_P1;HPM_P2
2022/12/15 05:32:46;;;;;;;5.35;2.15;;;-5.70;99.90;;;;;;4937480;29;20253;-65
2022/12/15 05:35:14;;;;;;;1.48;1.42;;;-5.60;99.90;;;;;;4937406;29;20280;-66
2022/12/15 05:37:41;;;;;;;1.15;1.15;;;-5.60;99.90;;;;;;4946028;29;20219;-66
2022/12/15 05:40:09;;;;;;;1.58;1.05;;;-5.60;99.90;;;;;;4938797;29;20334;-66
2022/12/15 05:42:36;;;;;;;3.25;3.15;;;-5.50;99.90;;;;;;4952260;29;20235;-65
2022/12/15 05:45:03;;;;;;;3.58;3.38;;;-5.50;99.90;;;;;;4947523;29;20220;-64
2022/12/15 05:47:30;;;;;;;0.38;0.38;;;-5.50;99.90;;;;;;4943988;29;20628;-64
2022/12/15 05:49:57;;;;;;;1.95;1.23;;;-5.40;99.90;;;;;;4941576;29;20639;-65
2022/12/15 05:52:25;;;;;;;1.48;1.40;;;-5.40;99.90;;;;;;4944780;28;20232;-64
2022/12/15 05:54:52;;;;;;;0.80;0.80;;;-5.40;99.90;;;;;;4940421;29;20212;-64
2022/12/15 05:57:18;;;;;;;1.10;1.10;;;-5.40;99.90;;;;;;4936857;29;20223;-64
2022/12/15 05:59:45;;;;;;;2.30;0.88;;;-5.40;99.90;;;;;;4943397;29;20228;-64
2022/12/15 06:02:12;;;;;;;1.85;1.85;;;-5.30;99.90;;;;;;4939609;29;20232;-63
2022/12/15 06:04:38;;;;;;;3.58;3.28;;;-5.40;99.90;;;;;;4938152;29;20232;-65
2022/12/15 06:07:05;;;;;;;9.35;8.07;;;-5.40;99.90;;;;;;4948599;29;20215;-64
2022/12/15 06:09:33;;;;;;;3.38;3.20;;;-5.40;99.90;;;;;;4938705;29;20228;-64
2022/12/15 06:12:00;;;;;;;1.40;1.40;;;-5.40;99.90;;;;;;4940796;29;20268;-64
2022/12/15 06:14:26;;;;;;;0.68;0.68;;;-5.50;99.90;;;;;;4939107;29;20208;-64
2022/12/15 06:16:53;;;;;;;3.83;3.55;;;-5.50;99.90;;;;;;4940010;29;20569;-64
2022/12/15 06:19:20;;;;;;;2.28;2.17;;;-5.50;99.90;;;;;;4940238;29;20241;-65
2022/12/15 06:21:47;;;;;;;1.00;0.73;;;-5.50;99.90;;;;;;4945090;29;20232;-65
2022/12/15 06:24:14;;;;;;;0.90;0.85;;;-5.50;99.90;;;;;;4940853;29;20216;-65
2022/12/15 06:26:42;;;;;;;6.00;5.68;;;-5.40;99.90;;;;;;4937064;29;20210;-65
2022/12/15 06:29:12;;;;;;;2.03;2.03;;;-5.40;99.90;;;;;;4945657;29;20229;-65
2022/12/15 06:31:39;;;;;;;5.57;2.97;;;-5.40;99.90;;;;;;4951731;28;20325;-66
2022/12/15 06:34:07;;;;;;;2.88;2.83;;;-5.40;99.90;;;;;;4939346;29;20208;-64
2022/12/15 06:36:34;;;;;;;4.90;2.70;;;-5.40;99.90;;;;;;4937957;29;20272;-65
2022/12/15 06:39:03;;;;;;;1.33;1.33;;;-5.40;99.90;;;;;;4943033;29;20319;-65
2022/12/15 06:41:30;;;;;;;2.05;2.05;;;-5.40;99.90;;;;;;4949479;28;20242;-65
2022/12/15 06:43:59;;;;;;;6.22;5.90;;;-5.40;99.90;;;;;;4940031;29;20732;-64
2022/12/15 06:46:27;;;;;;;3.22;2.95;;;-5.50;99.90;;;;;;4935418;29;20216;-64
2022/12/15 06:48:54;;;;;;;3.13;2.25;;;-5.50;99.90;;;;;;4938142;29;20208;-66
2022/12/15 06:51:22;;;;;;;4.47;3.38;;;-5.50;99.90;;;;;;4948318;28;20270;-65
2022/12/15 06:53:49;;;;;;;0.45;0.45;;;-5.50;99.90;;;;;;4939410;29;20302;-65
2022/12/15 06:56:19;;;;;;;2.15;2.15;;;-5.50;99.90;;;;;;4935998;29;20647;-65
2022/12/15 06:58:48;;;;;;;1.20;1.20;;;-5.50;99.90;;;;;;4939988;29;20647;-64
2022/12/15 07:01:17;;;;;;;7.05;1.90;;;-5.50;99.90;;;;;;4946750;29;20264;-66
2022/12/15 07:03:44;;;;;;;1.17;1.17;;;-5.50;99.90;;;;;;4943443;29;20289;-64
2022/12/15 07:06:12;;;;;;;1.88;1.88;;;-5.50;99.90;;;;;;4942616;29;20210;-65
2022/12/15 07:08:40;;;;;;;4.97;4.78;;;-5.50;99.90;;;;;;4943823;29;20251;-65
2022/12/15 07:11:10;;;;;;;8.13;1.33;;;-5.60;99.90;;;;;;4940577;29;20235;-66
2022/12/15 07:13:37;;;;;;;1.13;1.13;;;-5.60;99.90;;;;;;4940752;29;20202;-63
2022/12/15 07:16:06;;;;;;;2.60;2.60;;;-5.60;99.90;;;;;;4943260;29;20226;-66
2022/12/15 07:18:34;;;;;;;2.47;2.35;;;-5.60;99.90;;;;;;4940106;29;20219;-66
2022/12/15 07:21:04;;;;;;;3.85;1.20;;;-5.50;99.90;;;;;;4945409;29;20240;-66
2022/12/15 07:23:31;;;;;;;1.55;1.55;;;-5.50;99.90;;;;;;4942603;29;20299;-66
2022/12/15 07:25:58;;;;;;;1.80;1.80;;;-5.40;99.90;;;;;;4944115;29;20212;-65
2022/12/15 07:28:25;;;;;;;4.32;3.92;;;-5.40;99.90;;;;;;4938551;29;20216;-65
2022/12/15 07:30:51;;;;;;;1.70;1.70;;;-5.40;99.90;;;;;;4949932;29;20231;-66
2022/12/15 07:33:18;;;;;;;1.70;1.70;;;-5.30;99.90;;;;;;4942953;29;20220;-65
2022/12/15 07:35:54;;;;;;;1.92;1.92;;;-5.30;99.90;;;;;;4950076;29;20208;-66
2022/12/15 07:38:21;;;;;;;2.33;1.77;;;-5.30;99.90;;;;;;4935979;29;20212;-65
2022/12/15 07:40:48;;;;;;;3.72;3.67;;;-5.30;99.90;;;;;;4934934;29;20380;-64
2022/12/15 07:43:14;;;;;;;5.05;4.95;;;-5.20;99.90;;;;;;4943285;29;20218;-66
2022/12/15 07:45:41;;;;;;;1.77;1.67;;;-5.20;99.90;;;;;;4943048;29;20250;-65
2022/12/15 07:48:08;;;;;;;1.40;1.40;;;-5.10;99.90;;;;;;4944944;29;20208;-65
2022/12/15 07:50:37;;;;;;;0.93;0.93;;;-5.00;99.90;;;;;;4939841;29;20248;-65
2022/12/15 07:53:05;;;;;;;4.32;4.13;;;-5.00;99.90;;;;;;4937373;29;20210;-65
2022/12/15 07:55:32;;;;;;;3.70;3.67;;;-4.90;99.90;;;;;;4934660;29;20625;-65
2022/12/15 07:57:59;;;;;;;3.17;2.97;;;-4.90;99.90;;;;;;4947392;29;20215;-64
2022/12/15 08:00:26;;;;;;;0.63;0.63;;;-4.90;99.90;;;;;;4937774;28;20247;-66
2022/12/15 08:02:53;;;;;;;2.60;2.60;;;-4.90;99.90;;;;;;4933652;29;20312;-65
2022/12/15 08:05:20;;;;;;;1.58;1.23;;;-4.90;99.90;;;;;;4944134;29;20412;-65
2022/12/15 08:07:47;;;;;;;1.65;1.65;;;-4.80;99.90;;;;;;4939704;28;20302;-66
2022/12/15 08:10:15;;;;;;;1.65;1.55;;;-4.80;99.90;;;;;;4946095;29;20269;-65
2022/12/15 08:12:42;;;;;;;1.50;1.13;;;-4.80;99.90;;;;;;4947518;29;20981;-65
2022/12/15 08:15:10;;;;;;;1.92;1.88;;;-4.70;99.90;;;;;;4939113;29;20216;-65
2022/12/15 08:17:37;;;;;;;0.85;0.85;;;-4.60;99.90;;;;;;4946726;29;20213;-65
2022/12/15 08:20:04;;;;;;;2.92;2.78;;;-4.60;99.90;;;;;;4944559;29;20237;-65
2022/12/15 08:22:31;;;;;;;2.25;1.55;;;-4.60;99.90;;;;;;4939037;29;20224;-65
2022/12/15 08:24:58;;;;;;;3.78;3.58;;;-4.60;99.90;;;;;;4938923;29;20209;-64
2022/12/15 08:27:26;;;;;;;2.05;1.77;;;-4.50;99.90;;;;;;4940204;29;20208;-64
2022/12/15 08:29:53;;;;;;;4.22;3.88;;;-4.50;99.90;;;;;;4935099;29;20225;-64
2022/12/15 08:32:21;;;;;;;2.78;2.40;;;-4.50;99.90;;;;;;4934335;29;20723;-64
2022/12/15 08:34:48;;;;;;;5.75;2.40;;;-4.40;99.90;;;;;;4940719;29;20742;-66
2022/12/15 08:37:15;;;;;;;4.85;3.00;;;-4.40;99.90;;;;;;4942921;29;20245;-65
2022/12/15 08:39:42;;;;;;;10.55;7.25;;;-4.40;99.90;;;;;;4947159;29;20470;-64
2022/12/15 08:42:09;;;;;;;5.13;4.93;;;-4.30;99.90;;;;;;4948144;29;20316;-64
2022/12/15 08:44:37;;;;;;;2.40;1.35;;;-4.30;99.90;;;;;;4936507;29;20549;-64
2022/12/15 08:47:03;;;;;;;1.95;1.95;;;-4.20;99.90;;;;;;4946918;29;20224;-64
2022/12/15 08:49:30;;;;;;;1.00;1.00;;;-4.20;99.90;;;;;;4939970;29;20200;-64
2022/12/15 08:51:57;;;;;;;4.80;2.80;;;-4.10;99.90;;;;;;4940895;29;20237;-64
2022/12/15 08:54:24;;;;;;;1.98;1.98;;;-4.00;99.90;;;;;;4937525;29;20214;-63
2022/12/15 08:56:50;;;;;;;1.77;1.67;;;-4.00;99.90;;;;;;4935322;29;20212;-64
2022/12/15 08:59:17;;;;;;;0.90;0.90;;;-3.90;99.90;;;;;;4942854;29;20225;-64
2022/12/15 09:01:46;;;;;;;1.58;1.58;;;-3.90;99.90;;;;;;4949059;29;20919;-64
2022/12/15 09:04:12;;;;;;;3.95;3.80;;;-3.80;99.90;;;;;;4941089;29;20748;-65
2022/12/15 09:06:39;;;;;;;2.53;2.35;;;-3.80;99.90;;;;;;4941373;29;20221;-65
2022/12/15 09:09:08;;;;;;;2.75;2.75;;;-3.70;99.90;;;;;;4941300;29;20217;-66
2022/12/15 09:11:35;;;;;;;2.72;2.53;;;-3.70;99.90;;;;;;4936250;29;20250;-66
2022/12/15 09:14:02;;;;;;;2.30;2.20;;;-3.60;99.90;;;;;;4942191;29;20212;-65
2022/12/15 09:16:29;;;;;;;3.20;2.95;;;-3.50;99.90;;;;;;4941112;29;20205;-66
2022/12/15 09:18:59;;;;;;;4.70;4.25;;;-3.50;99.90;;;;;;4941773;29;20215;-65
2022/12/15 09:21:27;;;;;;;1.40;1.38;;;-3.50;99.90;;;;;;4933677;29;20287;-66
2022/12/15 09:23:59;;;;;;;3.10;3.10;;;-3.40;99.90;;;;;;4937564;29;20456;-65
2022/12/15 09:26:26;;;;;;;4.68;2.10;;;-3.40;99.90;;;;;;4939763;29;20212;-66
2022/12/15 09:28:54;;;;;;;0.85;0.85;;;-3.30;99.90;;;;;;4937879;29;20263;-66
2022/12/15 09:31:23;;;;;;;3.85;3.72;;;-3.30;99.90;;;;;;4947526;29;20329;-66
2022/12/15 09:33:51;;;;;;;2.15;2.15;;;-3.20;99.90;;;;;;4939300;29;20616;-66
2022/12/15 09:36:19;;;;;;;4.82;3.30;;;-3.10;99.90;;;;;;4945004;29;20205;-65
2022/12/15 09:38:46;;;;;;;1.25;1.25;;;-3.10;99.90;;;;;;4946112;29;20225;-66
2022/12/15 09:41:21;;;;;;;2.20;2.05;;;-3.10;99.90;;;;;;4947743;29;20245;-66
2022/12/15 09:43:53;;;;;;;1.40;1.35;;;-3.00;99.90;;;;;;4948281;29;20241;-66
2022/12/15 09:46:29;;;;;;;4.95;2.08;;;-3.00;99.90;;;;;;4935881;29;20226;-66
2022/12/15 09:48:59;;;;;;;2.05;1.80;;;-2.90;99.90;;;;;;4937451;29;20252;-66
2022/12/15 09:51:33;;;;;;;2.83;1.30;;;-2.80;99.90;;;;;;4947463;28;20362;-66
2022/12/15 09:54:00;;;;;;;4.93;4.53;;;-2.80;99.90;;;;;;4936407;29;20234;-66
2022/12/15 09:56:39;;;;;;;2.63;2.38;;;-2.70;99.90;;;;;;4944167;29;20212;-66
2022/12/15 09:59:17;;;;;;;3.13;2.78;;;-2.70;99.90;;;;;;4938504;29;20219;-66
2022/12/15 10:01:50;;;;;;;5.55;3.30;;;-2.60;99.90;;;;;;4942706;29;20228;-66
2022/12/15 10:04:26;;;;;;;6.47;5.72;;;-2.50;99.90;;;;;;4947394;29;20207;-65
2022/12/15 10:06:58;;;;;;;5.07;4.70;;;-2.50;99.90;;;;;;4937674;29;20229;-66
2022/12/15 10:09:28;;;;;;;5.40;5.20;;;-2.40;99.90;;;;;;4938852;29;20514;-66
2022/12/15 10:11:58;;;;;;;5.88;5.45;;;-2.30;99.90;;;;;;4941946;29;20233;-66
2022/12/15 10:14:31;;;;;;;3.65;3.28;;;-2.20;99.90;;;;;;4939553;29;20706;-66
2022/12/15 10:17:13;;;;;;;3.05;2.85;;;-2.10;99.90;;;;;;4949572;29;20570;-66
2022/12/15 10:19:45;;;;;;;2.58;2.53;;;-1.90;99.90;;;;;;4951004;29;20233;-66
2022/12/15 10:22:19;;;;;;;6.63;3.65;;;-1.80;99.90;;;;;;4960391;28;20226;-65
2022/12/15 10:24:46;;;;;;;3.03;2.92;;;-1.70;99.90;;;;;;4967083;29;20302;-65
2022/12/15 10:27:26;;;;;;;1.98;1.98;;;-1.70;99.90;;;;;;4952924;29;20210;-65
2022/12/15 10:30:00;;;;;;;3.00;3.00;;;-1.60;99.90;;;;;;4945378;29;20222;-66
2022/12/15 10:32:38;;;;;;;2.38;1.17;;;-1.60;99.90;;;;;;4951213;29;20277;-65
2022/12/15 10:35:08;;;;;;;3.75;3.65;;;-1.50;99.90;;;;;;4946092;29;20216;-65
2022/12/15 10:37:36;;;;;;;5.30;4.80;;;-1.50;99.90;;;;;;4950809;29;20305;-66
2022/12/15 10:40:03;;;;;;;4.55;3.28;;;-1.40;99.90;;;;;;4938856;29;20246;-66
2022/12/15 10:42:31;;;;;;;1.55;1.52;;;-1.40;99.90;;;;;;4938467;29;20649;-66
2022/12/15 10:44:59;;;;;;;6.57;5.93;;;-1.30;99.90;;;;;;4945457;29;20344;-67
2022/12/15 10:47:27;;;;;;;4.10;3.75;;;-1.20;99.90;;;;;;4943689;29;20203;-67
2022/12/15 10:49:56;;;;;;;4.68;4.25;;;-1.10;99.90;;;;;;4939644;29;20219;-67
2022/12/15 10:52:27;;;;;;;0.98;0.98;;;-1.00;99.90;;;;;;4938184;29;20232;-66
2022/12/15 10:54:56;;;;;;;4.13;3.75;;;-0.90;99.90;;;;;;4941277;29;20257;-65
2022/12/15 10:57:27;;;;;;;2.97;2.72;;;-0.80;99.90;;;;;;4945273;29;20206;-67
2022/12/15 10:59:55;;;;;;;5.97;4.07;;;-0.70;99.90;;;;;;4947445;29;20358;-67
2022/12/15 11:02:31;;;;;;;6.70;3.97;;;-0.60;99.90;;;;;;4941763;29;20242;-65
2022/12/15 11:04:59;;;;;;;7.68;2.92;;;-0.50;99.90;;;;;;4942849;29;20210;-66
2022/12/15 11:07:29;;;;;;;3.72;3.42;;;-0.40;99.90;;;;;;4939764;29;20215;-65
2022/12/15 11:10:01;;;;;;;4.68;4.38;;;-0.30;99.90;;;;;;4943661;29;20563;-66
2022/12/15 11:15:41;;;;;;;2.30;2.30;;;-0.20;99.90;;;;;;4939928;29;20297;-67
2022/12/15 11:18:18;;;;;;;3.17;2.85;;;-0.10;99.90;;;;;;4944146;29;20208;-66
2022/12/15 11:20:50;;;;;;;2.67;2.58;;;0.00;99.90;;;;;;4946084;29;20683;-67
2022/12/15 11:23:23;;;;;;;2.50;2.40;;;0.10;99.90;;;;;;4943267;29;20208;-66
2022/12/15 11:25:57;;;;;;;5.40;3.67;;;0.10;99.90;;;;;;4939004;29;20202;-66
2022/12/15 11:28:29;;;;;;;4.32;4.03;;;0.20;99.90;;;;;;4941583;29;20228;-67
2022/12/15 11:31:02;;;;;;;6.93;5.15;;;0.30;99.90;;;;;;4946095;29;20225;-66
2022/12/15 11:33:28;;;;;;;2.88;2.67;;;0.40;99.90;;;;;;4936756;28;20216;-67
2022/12/15 11:36:08;;;;;;;7.50;4.40;;;0.40;99.90;;;;;;4949530;29;20232;-66
2022/12/15 11:38:43;;;;;;;4.60;4.20;;;0.50;99.90;;;;;;4945009;29;20214;-66
2022/12/15 11:41:22;;;;;;;3.67;3.50;;;0.50;99.90;;;;;;4942231;29;20320;-67
2022/12/15 11:44:16;;;;;;;3.65;3.45;;;0.50;99.90;;;;;;4942335;29;20215;-67
2022/12/15 11:46:51;;;;;;;5.10;4.25;;;0.60;99.90;;;;;;4940095;29;20442;-67
2022/12/15 11:49:37;;;;;;;3.05;2.85;;;0.60;99.90;;;;;;4971395;23;20236;-65
2022/12/15 11:52:17;;;;;;;3.70;3.35;;;0.70;99.90;;;;;;4971561;28;20594;-66
2022/12/15 11:54:48;;;;;;;1.10;1.10;;;0.70;99.90;;;;;;4979183;28;20662;-66
2022/12/15 11:57:40;;;;;;;4.88;4.50;;;0.70;99.90;;;;;;4973532;28;20233;-65
2022/12/15 12:00:10;;;;;;;3.70;3.03;;;0.80;99.90;;;;;;4954501;28;20244;-66
2022/12/15 12:02:56;;;;;;;3.90;3.40;;;0.80;99.90;;;;;;4951654;28;20681;-67
2022/12/15 12:05:35;;;;;;;2.28;1.75;;;0.90;99.90;;;;;;4957043;28;20775;-66
2022/12/15 12:08:14;;;;;;;3.80;3.50;;;0.90;99.90;;;;;;4964149;28;20663;-66
2022/12/15 12:10:50;;;;;;;2.17;2.08;;;0.90;99.90;;;;;;4953924;28;20603;-67
2022/12/15 12:13:23;;;;;;;3.13;2.05;;;1.00;99.90;;;;;;4951144;29;20212;-65
2022/12/15 12:15:59;;;;;;;12.00;4.00;;;1.10;99.90;;;;;;4949471;28;20216;-66
2022/12/15 12:18:31;;;;;;;2.40;2.20;;;1.10;99.90;;;;;;4953437;28;20197;-67
2022/12/15 12:21:04;;;;;;;2.78;2.67;;;1.10;99.90;;;;;;4951879;29;20576;-66
2022/12/15 12:23:39;;;;;;;13.38;6.03;;;1.10;99.90;;;;;;4945465;29;20228;-67
2022/12/15 12:26:12;;;;;;;12.65;4.50;;;1.10;99.90;;;;;;4953304;29;20201;-67
2022/12/15 12:28:46;;;;;;;5.80;3.20;;;1.10;99.90;;;;;;4952756;29;20232;-66
2022/12/15 12:31:22;;;;;;;2.70;2.60;;;1.20;99.90;;;;;;4951893;29;20205;-66
2022/12/15 12:33:54;;;;;;;6.32;4.20;;;1.20;99.90;;;;;;4952045;29;20209;-67
2022/12/15 12:36:21;;;;;;;4.72;2.47;;;1.30;99.90;;;;;;4953199;29;20213;-67
2022/12/15 12:38:51;;;;;;;3.90;3.50;;;1.30;99.90;;;;;;4952966;29;20229;-66
2022/12/15 12:41:26;;;;;;;6.00;4.20;;;1.30;99.90;;;;;;4951751;29;20239;-67
2022/12/15 12:43:57;;;;;;;5.13;4.75;;;1.40;99.90;;;;;;4950503;29;20201;-68
2022/12/15 12:46:27;;;;;;;3.75;3.38;;;1.40;99.90;;;;;;4943815;29;20209;-67
2022/12/15 12:48:58;;;;;;;6.38;4.30;;;1.40;99.90;;;;;;4951442;28;20259;-67
2022/12/15 12:51:29;;;;;;;4.38;4.18;;;1.50;99.90;;;;;;4952148;28;20209;-67
2022/12/15 12:53:57;;;;;;;8.57;4.13;;;1.70;99.90;;;;;;4951698;28;20816;-66
2022/12/15 12:56:33;;;;;;;2.10;1.67;;;1.70;99.90;;;;;;4955166;28;20223;-67
2022/12/15 12:59:06;;;;;;;2.30;2.30;;;1.80;99.90;;;;;;4949398;28;20232;-69
2022/12/15 13:01:35;;;;;;;3.88;3.58;;;1.80;99.90;;;;;;4939077;28;20257;-68
2022/12/15 13:04:07;;;;;;;3.83;3.53;;;1.80;99.90;;;;;;4952381;28;20223;-68
2022/12/15 13:06:57;;;;;;;3.03;2.35;;;1.80;99.90;;;;;;4955481;28;20198;-67
2022/12/15 13:09:25;;;;;;;4.25;4.03;;;1.80;99.90;;;;;;4952870;28;20233;-68
2022/12/15 13:11:57;;;;;;;14.30;5.35;;;1.70;99.90;;;;;;4959128;28;20201;-67
2022/12/15 13:14:36;;;;;;;3.83;3.50;;;1.80;99.90;;;;;;4953650;28;20220;-67
2022/12/15 13:17:10;;;;;;;7.75;3.85;;;1.80;99.90;;;;;;4953500;28;20268;-67
2022/12/15 13:20:26;;;;;;;3.78;2.00;;;1.80;99.90;;;;;;4944324;28;20228;-66
2022/12/15 13:22:55;;;;;;;5.50;3.65;;;1.80;99.90;;;;;;4889179;29;20218;-66
2022/12/15 13:25:41;;;;;;;6.70;4.28;;;1.90;99.90;;;;;;4941504;28;20221;-67
2022/12/15 13:28:33;;;;;;;2.13;2.03;;;1.80;99.90;;;;;;4951646;28;20219;-66
2022/12/15 13:31:30;;;;;;;3.13;2.28;;;1.80;99.90;;;;;;4938304;29;20220;-65
2022/12/15 13:34:09;;;;;;;7.40;3.45;;;1.80;99.90;;;;;;4906702;28;20212;-65
2022/12/15 13:36:47;;;;;;;2.58;2.47;;;1.80;99.90;;;;;;4957569;28;20219;-66
2022/12/15 13:39:47;;;;;;;10.20;3.63;;;1.70;99.90;;;;;;4966555;28;20231;-65
2022/12/15 13:42:36;;;;;;;6.63;3.30;;;1.70;99.90;;;;;;4945911;28;20710;-66
2022/12/15 13:45:34;;;;;;;1.58;1.58;;;1.60;99.90;;;;;;4944714;28;20221;-65
2022/12/15 13:48:12;;;;;;;2.90;2.85;;;1.60;99.90;;;;;;4945678;28;20205;-68
2022/12/15 13:50:45;;;;;;;3.42;2.88;;;1.60;99.90;;;;;;4951420;28;20730;-65
2022/12/15 13:53:18;;;;;;;3.42;2.13;;;1.60;99.90;;;;;;4945462;28;20214;-66
2022/12/15 13:56:03;;;;;;;2.70;2.55;;;1.50;99.90;;;;;;4951662;28;20209;-66
2022/12/15 13:58:38;;;;;;;3.25;3.05;;;1.50;99.90;;;;;;4951046;28;20220;-65
2022/12/15 14:01:19;;;;;;;2.15;2.03;;;1.50;99.90;;;;;;4941398;29;20231;-65
2022/12/15 14:03:58;;;;;;;8.32;4.55;;;1.50;99.90;;;;;;4953641;29;20810;-66
2022/12/15 14:06:36;;;;;;;5.90;5.28;;;1.50;99.90;;;;;;4956440;29;20224;-65
2022/12/15 14:09:05;;;;;;;6.45;4.70;;;1.40;99.90;;;;;;4955882;28;20239;-65
2022/12/15 14:11:35;;;;;;;1.80;1.80;;;1.40;99.90;;;;;;4954635;29;20304;-68
2022/12/15 14:14:02;;;;;;;2.05;1.55;;;1.40;99.90;;;;;;4953273;29;20243;-67
2022/12/15 14:16:33;;;;;;;2.50;2.40;;;1.40;99.90;;;;;;4955687;29;20683;-67
2022/12/15 14:19:12;;;;;;;2.00;1.98;;;1.40;99.90;;;;;;4955752;29;20239;-67
2022/12/15 14:21:38;;;;;;;4.57;3.92;;;1.40;99.90;;;;;;4953636;29;20232;-67
2022/12/15 14:24:21;;;;;;;11.88;7.05;;;1.30;99.90;;;;;;4952867;29;20268;-65
2022/12/15 14:26:48;;;;;;;5.03;4.70;;;1.40;99.90;;;;;;4955350;29;20702;-66
2022/12/15 14:29:15;;;;;;;4.03;3.63;;;1.30;99.90;;;;;;4967674;28;20239;-67
2022/12/15 14:31:46;;;;;;;2.30;2.20;;;1.30;99.90;;;;;;4968793;28;20211;-66
2022/12/15 14:34:24;;;;;;;9.10;4.43;;;1.30;99.90;;;;;;4955841;28;20315;-67
2022/12/15 14:36:51;;;;;;;3.90;3.70;;;1.30;99.90;;;;;;4958370;28;20209;-66
2022/12/15 14:39:22;;;;;;;5.22;3.47;;;1.30;99.90;;;;;;4971818;28;20227;-67
2022/12/15 14:41:51;;;;;;;5.88;3.15;;;1.20;99.90;;;;;;4966326;28;20236;-65
2022/12/15 14:44:25;;;;;;;5.18;3.63;;;1.20;99.90;;;;;;4953047;28;20212;-66
2022/12/15 14:46:51;;;;;;;2.67;1.50;;;1.10;99.90;;;;;;4951246;28;20212;-66
2022/12/15 14:49:21;;;;;;;1.48;1.48;;;1.10;99.90;;;;;;4955685;28;20240;-66
2022/12/15 14:51:52;;;;;;;1.73;1.73;;;1.00;99.90;;;;;;4953668;28;20212;-65
2022/12/15 14:54:29;;;;;;;3.00;2.80;;;1.00;99.90;;;;;;4954394;29;20209;-66
2022/12/15 14:57:01;;;;;;;5.90;3.75;;;0.90;99.90;;;;;;4954518;28;20216;-67
2022/12/15 14:59:33;;;;;;;1.55;1.55;;;0.80;99.90;;;;;;4953198;28;20266;-68
2022/12/15 15:02:10;;;;;;;3.10;2.90;;;0.70;99.90;;;;;;4945619;28;20272;-67
2022/12/15 15:04:38;;;;;;;4.70;3.30;;;0.70;99.90;;;;;;4946907;28;20213;-66
2022/12/15 15:07:07;;;;;;;2.80;2.60;;;0.70;99.90;;;;;;4944775;28;20211;-66
2022/12/15 15:09:39;;;;;;;4.50;4.18;;;0.70;99.90;;;;;;4951486;28;20231;-67
2022/12/15 15:12:09;;;;;;;5.85;4.68;;;0.60;99.90;;;;;;4952115;28;20207;-68
2022/12/15 15:14:40;;;;;;;2.88;2.30;;;0.60;99.90;;;;;;4959638;28;20198;-66
2022/12/15 15:17:15;;;;;;;2.70;2.47;;;0.60;99.90;;;;;;4951185;28;20702;-67
2022/12/15 15:19:50;;;;;;;3.33;3.17;;;0.50;99.90;;;;;;4947971;29;20238;-66
2022/12/15 15:22:35;;;;;;;10.25;3.53;;;0.50;99.90;;;;;;4961681;28;20304;-67
2022/12/15 15:25:03;;;;;;;3.85;2.05;;;0.50;99.90;;;;;;4953132;28;20212;-67
2022/12/15 15:27:36;;;;;;;2.55;2.35;;;0.40;99.90;;;;;;4952671;28;20579;-66
2022/12/15 15:30:18;;;;;;;6.55;5.47;;;0.30;99.90;;;;;;4951722;28;20343;-67
2022/12/15 15:32:54;;;;;;;1.98;1.95;;;0.30;99.90;;;;;;4959452;28;20202;-67
2022/12/15 15:35:23;;;;;;;2.08;2.08;;;0.30;99.90;;;;;;4970392;28;20320;-67
2022/12/15 15:37:52;;;;;;;2.30;1.88;;;0.30;99.90;;;;;;4955440;28;20211;-66
2022/12/15 15:40:19;;;;;;;3.50;3.30;;;0.20;99.90;;;;;;4966822;28;20643;-67
2022/12/15 15:42:47;;;;;;;2.72;2.70;;;0.20;99.90;;;;;;4959673;28;20237;-67
2022/12/15 15:45:14;;;;;;;4.82;4.53;;;0.10;99.90;;;;;;4954864;28;20211;-67
2022/12/15 15:47:45;;;;;;;8.07;2.90;;;0.00;99.90;;;;;;4953220;28;20208;-67
2022/12/15 15:50:14;;;;;;;2.72;2.70;;;0.00;99.90;;;;;;4957893;28;20250;-67
2022/12/15 15:52:44;;;;;;;3.67;3.45;;;0.00;99.90;;;;;;4963433;28;20212;-66
2022/12/15 15:55:15;;;;;;;2.60;2.42;;;-0.10;99.90;;;;;;4954738;28;20654;-66
2022/12/15 15:57:41;;;;;;;1.80;1.70;;;-0.10;99.90;;;;;;4952651;28;20212;-68
2022/12/15 16:00:16;;;;;;;2.35;2.15;;;-0.10;99.90;;;;;;4955073;28;20243;-66
2022/12/15 16:02:43;;;;;;;1.85;1.85;;;-0.10;99.90;;;;;;4964542;28;20291;-66
2022/12/15 16:05:09;;;;;;;2.45;2.28;;;-0.10;99.90;;;;;;4962391;28;20305;-68
2022/12/15 16:07:37;;;;;;;6.70;4.53;;;-0.10;99.90;;;;;;4953416;28;20228;-66
2022/12/15 16:10:12;;;;;;;4.15;3.90;;;-0.10;99.90;;;;;;4956626;28;20688;-67
2022/12/15 16:12:42;;;;;;;1.30;1.30;;;-0.10;99.90;;;;;;4964072;28;20292;-67
2022/12/15 16:15:18;;;;;;;2.60;2.50;;;-0.20;99.90;;;;;;4952736;29;20211;-67
2022/12/15 16:17:46;;;;;;;5.95;5.35;;;-0.20;99.90;;;;;;4950631;28;20213;-66
2022/12/15 16:20:14;;;;;;;4.32;2.72;;;-0.20;99.90;;;;;;4953213;28;20599;-67
2022/12/15 16:22:42;;;;;;;8.80;7.28;;;-0.20;99.90;;;;;;4959158;28;20221;-67
2022/12/15 16:25:17;;;;;;;7.18;4.30;;;-0.30;99.90;;;;;;4958119;28;20210;-67
2022/12/15 16:27:44;;;;;;;9.38;8.15;;;-0.30;99.90;;;;;;4951039;29;20223;-66
2022/12/15 16:30:20;;;;;;;12.65;6.80;;;-0.30;99.90;;;;;;4953725;28;20632;-66
2022/12/15 16:32:46;;;;;;;5.07;4.15;;;-0.30;99.90;;;;;;4965700;28;20575;-68
2022/12/15 16:35:14;;;;;;;4.35;4.03;;;-0.30;99.90;;;;;;4964993;28;20306;-67
2022/12/15 16:37:45;;;;;;;3.92;3.63;;;-0.40;99.90;;;;;;4961016;28;20231;-67
2022/12/15 16:40:18;;;;;;;3.88;3.58;;;-0.40;99.90;;;;;;4952865;29;20239;-67
2022/12/15 16:42:51;;;;;;;7.15;6.68;;;-0.40;99.90;;;;;;4952944;29;20322;-66
2022/12/15 16:45:19;;;;;;;5.85;5.20;;;-0.40;99.90;;;;;;4952860;29;20303;-66
2022/12/15 16:47:46;;;;;;;3.75;3.55;;;-0.50;99.90;;;;;;4951195;29;20556;-65
2022/12/15 16:50:14;;;;;;;6.97;5.10;;;-0.50;99.90;;;;;;4952447;28;20237;-67
2022/12/15 16:52:42;;;;;;;8.10;6.65;;;-0.60;99.90;;;;;;4953154;29;20211;-67
2022/12/15 16:55:19;;;;;;;5.72;5.38;;;-0.60;99.90;;;;;;4952647;29;20230;-67
2022/12/15 16:57:47;;;;;;;5.97;5.50;;;-0.60;99.90;;;;;;4950717;29;20251;-67
2022/12/15 17:00:19;;;;;;;5.00;4.70;;;-0.60;99.90;;;;;;4949698;29;20290;-68
2022/12/15 17:02:46;;;;;;;5.15;4.82;;;-0.60;99.90;;;;;;4953010;28;20223;-68
2022/12/15 17:05:13;;;;;;;7.22;5.32;;;-0.60;99.90;;;;;;4954202;28;20211;-68
2022/12/15 17:07:41;;;;;;;4.20;3.95;;;-0.60;99.90;;;;;;4952787;28;20211;-67
2022/12/15 17:10:21;;;;;;;5.18;4.85;;;-0.60;99.90;;;;;;4956362;28;20227;-66
2022/12/15 17:12:48;;;;;;;4.15;3.88;;;-0.60;99.90;;;;;;4964649;28;20204;-67
2022/12/15 17:15:23;;;;;;;3.08;2.83;;;-0.70;99.90;;;;;;4970338;28;20212;-68
2022/12/15 17:17:50;;;;;;;5.28;4.85;;;-0.70;99.90;;;;;;4953279;28;20582;-68
2022/12/15 17:20:19;;;;;;;6.75;3.95;;;-0.70;99.90;;;;;;4954044;28;20242;-67
2022/12/15 17:22:49;;;;;;;5.15;4.82;;;-0.80;99.90;;;;;;4951899;28;20233;-67
2022/12/15 17:25:19;;;;;;;5.22;4.57;;;-0.80;99.90;;;;;;4960225;28;20211;-66
2022/12/15 17:27:50;;;;;;;3.20;3.00;;;-0.80;99.90;;;;;;4951263;28;20213;-68
2022/12/15 17:30:17;;;;;;;3.83;3.72;;;-0.80;99.90;;;;;;4948461;28;20322;-67
2022/12/15 17:32:44;;;;;;;3.70;3.45;;;-0.80;99.90;;;;;;4952170;28;20210;-67
2022/12/15 17:35:12;;;;;;;5.45;4.00;;;-0.80;99.90;;;;;;4952457;28;20548;-67
2022/12/15 17:37:39;;;;;;;8.77;5.50;;;-0.80;99.90;;;;;;4948646;28;20215;-66
2022/12/15 17:40:15;;;;;;;7.85;7.30;;;-0.80;99.90;;;;;;4957795;28;20893;-66
2022/12/15 17:42:42;;;;;;;4.80;4.40;;;-0.90;99.90;;;;;;4955626;28;20620;-68
2022/12/15 17:45:16;;;;;;;7.78;3.10;;;-0.90;99.90;;;;;;4952802;28;20212;-66
2022/12/15 17:47:43;;;;;;;2.25;2.17;;;-1.10;99.90;;;;;;4953047;28;20315;-68
2022/12/15 17:50:11;;;;;;;5.95;5.45;;;-1.10;99.90;;;;;;4981321;23;20360;-69
2022/12/15 17:52:38;;;;;;;5.65;2.53;;;-1.20;99.90;;;;;;4938123;28;20227;-69
2022/12/15 17:55:17;;;;;;;3.20;2.90;;;-1.20;99.90;;;;;;4936289;29;20218;-70
2022/12/15 17:57:43;;;;;;;5.07;3.92;;;-1.20;99.90;;;;;;4936980;29;20720;-69
2022/12/15 18:00:21;;;;;;;4.88;4.57;;;-1.20;99.90;;;;;;4941660;29;20579;-69
2022/12/15 18:02:48;;;;;;;5.85;5.38;;;-1.30;99.90;;;;;;4916181;29;20259;-67
2022/12/15 18:05:16;;;;;;;2.75;2.75;;;-1.30;99.90;;;;;;4917043;29;20295;-70
2022/12/15 18:07:43;;;;;;;5.80;5.43;;;-1.30;99.90;;;;;;4933239;29;20207;-69
2022/12/15 18:10:25;;;;;;;5.30;4.97;;;-1.30;99.90;;;;;;4924786;29;20216;-69
2022/12/15 18:12:52;;;;;;;3.58;2.95;;;-1.30;99.90;;;;;;4922039;29;20204;-69
2022/12/15 18:15:23;;;;;;;3.97;3.55;;;-1.30;99.90;;;;;;4931023;29;20204;-69
2022/12/15 18:17:50;;;;;;;6.43;5.93;;;-1.30;99.90;;;;;;4925115;29;20200;-68
2022/12/15 18:20:17;;;;;;;3.42;3.22;;;-1.30;99.90;;;;;;4914984;29;20588;-68
2022/12/15 18:22:45;;;;;;;4.22;3.97;;;-1.30;99.90;;;;;;4935680;29;20322;-68
2022/12/15 18:25:16;;;;;;;3.50;3.25;;;-1.30;99.90;;;;;;4926253;29;20587;-68
2022/12/15 18:27:44;;;;;;;5.72;5.38;;;-1.40;99.90;;;;;;4924999;29;21027;-66
2022/12/15 18:30:16;;;;;;;5.72;5.30;;;-1.40;99.90;;;;;;4931508;29;20690;-69
2022/12/15 18:32:45;;;;;;;7.25;4.80;;;-1.40;99.90;;;;;;4921504;29;20311;-69
2022/12/15 18:35:22;;;;;;;4.13;3.95;;;-1.40;99.90;;;;;;4926537;29;20207;-68
2022/12/15 18:37:50;;;;;;;6.00;5.80;;;-1.40;99.90;;;;;;4932877;29;20303;-68
2022/12/15 18:40:19;;;;;;;5.95;5.53;;;-1.50;99.90;;;;;;4929223;29;20237;-68
2022/12/15 18:42:47;;;;;;;12.63;5.07;;;-1.50;99.90;;;;;;4920074;29;20342;-68
2022/12/15 18:45:20;;;;;;;5.10;4.90;;;-1.60;99.90;;;;;;4933430;29;20211;-68